This is the latest recevied weather packets stored in our database for station/object ZL2ARL. If no packets are shown the sender has not sent any weather packets the latest 10 day(s).
| Time | Temp. | Humidity | Pressure | Rain* | Wind** | Luminosity | Snow |
|---|---|---|---|---|---|---|---|
| 1777805447 | 9.44° C | 86% | 1034.6 hPa | 0 mm | - | 0 W/m² | - |
| 1777804237 | 9.44° C | 86% | 1034.7 hPa | 0 mm | - | 0 W/m² | - |
| 1777794033 | 10° C | 83% | 1034 hPa | 0 mm | - | 0 W/m² | - |
| 1777786230 | 10.56° C | 79% | 1033.2 hPa | 0 mm | - | 4 W/m² | - |
| 1777785625 | 11.11° C | 79% | 1033.3 hPa | 0 mm | - | 9 W/m² | - |
| 1777785020 | 11.11° C | 78% | 1033.2 hPa | 0 mm | - | 16 W/m² | - |
| 1777779051 | 13.89° C | 71% | 1033.2 hPa | 0 mm | - | 179 W/m² | - |
| 1777773648 | 14.44° C | 68% | 1033.8 hPa | 0 mm | - | 357 W/m² | - |
| 1777773023 | 14.44° C | 68% | 1033.8 hPa | 0 mm | - | 371 W/m² | - |
| 1777771833 | 14.44° C | 69% | 1034.1 hPa | 0 mm | - | 400 W/m² | - |
| 1777764029 | 13.33° C | 74% | 1035.4 hPa | 0 mm | - | 436 W/m² | - |
| 1777761650 | 12.78° C | 75% | 1035.6 hPa | 0 mm | - | 358 W/m² | - |
| 1777761025 | 12.22° C | 76% | 1035.7 hPa | 0 mm | - | 330 W/m² | - |
| 1777760420 | 12.22° C | 77% | 1035.8 hPa | 0 mm | - | 298 W/m² | - |
| 1777754431 | 9.44° C | 89% | 1036.2 hPa | 0 mm | - | 117 W/m² | - |
| 1777753826 | 8.89° C | 90% | 1036.2 hPa | 0 mm | - | 100 W/m² | - |
| 1777750822 | 6.67° C | 94% | 1036.1 hPa | 0 mm | - | 22 W/m² | - |
| 1777744831 | 4.44° C | 96% | 1035.8 hPa | 0 mm | - | 0 W/m² | - |
| 1777744226 | 5° C | 96% | 1035.9 hPa | 0 mm | - | 0 W/m² | - |
| 1777743622 | 5.56° C | 96% | 1035.9 hPa | 0 mm | - | 0 W/m² | - |
| 1777733418 | 3.89° C | 94% | 1035.8 hPa | 0 mm | - | 0 W/m² | - |
| 1777732249 | 4.44° C | 94% | 1036 hPa | 0 mm | - | 0 W/m² | - |
| 1777731644 | 4.44° C | 94% | 1036.1 hPa | 0 mm | - | 0 W/m² | - |
| 1777723820 | 5.56° C | 90% | 1036 hPa | 0 mm | - | 0 W/m² | - |
| 1777720856 | 7.78° C | 89% | 1035.9 hPa | 0 mm | - | 0 W/m² | - |
* Rain latest hour (hover to see other rain measurements)
** Current wind speed in m/s (hover to see current wind gust speed)